Time;durP1;ratioP1;P1;durP2;ratioP2;P2;SDS_P1;SDS_P2;PMS_P1;PMS_P2;Temp;Humidity;BMP_temperature;BMP_pressure;BME280_temperature;BME280_humidity;BME280_pressure;Samples;Min_cycle;Max_cycle;Signal;HPM_P1;HPM_P2
2021/03/01 00:00:33;;;;;;;14.50;10.50;;;;;;;;;;5101301;28;20191;-60
2021/03/01 00:03:00;;;;;;;15.23;10.70;;;;;;;;;;5101986;28;20203;-59
2021/03/01 00:05:26;;;;;;;13.90;10.97;;;;;;;;;;5081323;28;20174;-59
2021/03/01 00:07:52;;;;;;;17.13;11.53;;;;;;;;;;5097907;28;20223;-60
2021/03/01 00:10:19;;;;;;;13.10;10.10;;;;;;;;;;5100881;28;20196;-60
2021/03/01 00:12:45;;;;;;;15.43;11.17;;;;;;;;;;5105699;28;20581;-59
2021/03/01 00:15:13;;;;;;;15.67;12.27;;;;;;;;;;5097297;28;20175;-60
2021/03/01 00:17:39;;;;;;;16.60;12.10;;;;;;;;;;5099342;28;20208;-60
2021/03/01 00:20:07;;;;;;;14.70;11.50;;;;;;;;;;5098339;28;20183;-60
2021/03/01 00:22:34;;;;;;;14.33;11.67;;;;;;;;;;5078493;28;20214;-61
2021/03/01 00:25:00;;;;;;;17.40;11.67;;;;;;;;;;5101272;28;20199;-60
2021/03/01 00:27:26;;;;;;;16.00;11.50;;;;;;;;;;5093743;28;20519;-59
2021/03/01 00:29:52;;;;;;;17.27;11.60;;;;;;;;;;5078699;28;20194;-61
2021/03/01 00:32:18;;;;;;;16.20;12.87;;;;;;;;;;5089486;28;20179;-61
2021/03/01 00:34:44;;;;;;;18.97;13.67;;;;;;;;;;5106967;28;20191;-60
2021/03/01 00:37:11;;;;;;;20.33;13.43;;;;;;;;;;5078151;28;20176;-60
2021/03/01 00:39:37;;;;;;;17.50;13.17;;;;;;;;;;5091747;28;20205;-59
2021/03/01 00:42:03;;;;;;;19.20;13.30;;;;;;;;;;5082914;28;20176;-60
2021/03/01 00:44:30;;;;;;;19.33;13.50;;;;;;;;;;5092318;28;20646;-61
2021/03/01 00:46:57;;;;;;;20.80;13.23;;;;;;;;;;5097790;28;20177;-60
2021/03/01 00:49:23;;;;;;;20.67;13.27;;;;;;;;;;5103429;28;20723;-59
2021/03/01 00:51:49;;;;;;;20.20;13.30;;;;;;;;;;5101616;28;20183;-60
2021/03/01 00:54:15;;;;;;;17.10;12.40;;;;;;;;;;5095129;28;20219;-60
2021/03/01 00:56:41;;;;;;;20.73;13.47;;;;;;;;;;5100512;28;20183;-59
2021/03/01 00:59:07;;;;;;;17.30;12.53;;;;;;;;;;5094340;28;20184;-60
2021/03/01 01:01:33;;;;;;;18.17;13.23;;;;;;;;;;5095038;28;20172;-59
2021/03/01 01:03:59;;;;;;;15.93;12.60;;;;;;;;;;5095437;28;20183;-60
2021/03/01 01:06:25;;;;;;;17.13;12.47;;;;;;;;;;5090884;28;20208;-59
2021/03/01 01:08:51;;;;;;;18.13;13.10;;;;;;;;;;5103969;28;20560;-60
2021/03/01 01:11:17;;;;;;;15.00;12.47;;;;;;;;;;5097475;28;20644;-59
2021/03/01 01:13:43;;;;;;;18.80;12.77;;;;;;;;;;5102565;28;20207;-59
2021/03/01 01:16:10;;;;;;;15.70;12.20;;;;;;;;;;5094955;28;20195;-60
2021/03/01 01:18:36;;;;;;;17.97;13.47;;;;;;;;;;5078587;28;20262;-59
2021/03/01 01:21:02;;;;;;;18.07;11.70;;;;;;;;;;5088119;28;20198;-61
2021/03/01 01:23:28;;;;;;;15.80;11.73;;;;;;;;;;5102210;28;20530;-60
2021/03/01 01:25:54;;;;;;;15.97;11.57;;;;;;;;;;5092391;28;20175;-62
2021/03/01 01:28:20;;;;;;;15.57;12.03;;;;;;;;;;5107340;28;20198;-59
2021/03/01 01:30:46;;;;;;;17.07;12.73;;;;;;;;;;5082108;28;20572;-59
2021/03/01 01:33:13;;;;;;;16.63;12.67;;;;;;;;;;5094118;28;20653;-59
2021/03/01 01:35:39;;;;;;;17.70;13.03;;;;;;;;;;5098214;28;20183;-62
2021/03/01 01:38:05;;;;;;;18.97;12.63;;;;;;;;;;5073781;28;20191;-60
2021/03/01 01:40:31;;;;;;;16.67;11.17;;;;;;;;;;5102977;28;20667;-59
2021/03/01 01:42:58;;;;;;;16.87;12.23;;;;;;;;;;5097211;28;20602;-59
2021/03/01 01:45:24;;;;;;;16.47;12.13;;;;;;;;;;5085047;28;20638;-59
2021/03/01 01:47:51;;;;;;;17.23;12.33;;;;;;;;;;5096328;28;20191;-60
2021/03/01 01:50:19;;;;;;;15.90;12.27;;;;;;;;;;5090910;28;20214;-59
2021/03/01 01:52:46;;;;;;;16.60;12.60;;;;;;;;;;5083302;28;20622;-59
2021/03/01 01:55:12;;;;;;;15.67;11.70;;;;;;;;;;5092133;28;20298;-60
2021/03/01 01:57:39;;;;;;;15.40;11.63;;;;;;;;;;5098143;28;20615;-62
2021/03/01 02:00:12;;;;;;;14.93;10.90;;;;;;;;;;5094441;28;20190;-62
2021/03/01 02:02:39;;;;;;;15.47;11.63;;;;;;;;;;5100344;28;20163;-59
2021/03/01 02:05:06;;;;;;;15.30;11.10;;;;;;;;;;5096852;28;20267;-62
2021/03/01 02:07:39;;;;;;;15.33;11.10;;;;;;;;;;5089144;28;20245;-59
2021/03/01 02:10:15;;;;;;;17.10;11.33;;;;;;;;;;5100014;28;20519;-60
2021/03/01 02:12:45;;;;;;;13.57;10.97;;;;;;;;;;5080240;28;20523;-59
2021/03/01 02:15:14;;;;;;;15.47;11.23;;;;;;;;;;5097249;28;20223;-59
2021/03/01 02:17:40;;;;;;;15.07;11.50;;;;;;;;;;5097749;28;20224;-60
2021/03/01 02:20:09;;;;;;;16.40;12.00;;;;;;;;;;5096668;28;20199;-59
2021/03/01 02:22:35;;;;;;;15.37;12.17;;;;;;;;;;5075834;28;20175;-61
2021/03/01 02:25:09;;;;;;;15.53;10.27;;;;;;;;;;5099884;28;20458;-59
2021/03/01 02:27:38;;;;;;;15.33;11.37;;;;;;;;;;5074082;28;20184;-62
2021/03/01 02:30:06;;;;;;;13.80;11.33;;;;;;;;;;5073422;28;20176;-59
2021/03/01 02:32:34;;;;;;;15.73;11.30;;;;;;;;;;5102084;28;20182;-60
2021/03/01 02:35:01;;;;;;;12.67;9.80;;;;;;;;;;5101250;28;20762;-62
2021/03/01 02:37:28;;;;;;;19.17;11.57;;;;;;;;;;5095186;28;20258;-59
2021/03/01 02:39:55;;;;;;;14.17;10.33;;;;;;;;;;5097779;28;20182;-62
2021/03/01 02:42:25;;;;;;;14.07;11.07;;;;;;;;;;5099033;28;20457;-59
2021/03/01 02:44:52;;;;;;;12.93;9.30;;;;;;;;;;5100751;28;20510;-60
2021/03/01 02:47:19;;;;;;;13.83;10.50;;;;;;;;;;5101317;28;20286;-60
2021/03/01 02:49:46;;;;;;;14.43;10.63;;;;;;;;;;5099481;28;20258;-62
2021/03/01 02:52:14;;;;;;;13.73;10.77;;;;;;;;;;5102185;28;20237;-59
2021/03/01 02:54:40;;;;;;;15.37;11.13;;;;;;;;;;5101959;28;20688;-60
2021/03/01 02:57:07;;;;;;;14.17;10.90;;;;;;;;;;5095758;28;20236;-60
2021/03/01 02:59:33;;;;;;;12.80;9.93;;;;;;;;;;5103424;28;20589;-60
2021/03/01 03:02:00;;;;;;;14.43;10.53;;;;;;;;;;5107051;28;20211;-60
2021/03/01 03:04:26;;;;;;;13.73;10.47;;;;;;;;;;5085886;28;20194;-60
2021/03/01 03:06:53;;;;;;;14.13;10.73;;;;;;;;;;5095092;28;20620;-59
2021/03/01 03:09:19;;;;;;;14.80;11.50;;;;;;;;;;5099089;28;20196;-60
2021/03/01 03:11:47;;;;;;;14.20;10.63;;;;;;;;;;5099811;28;20613;-60
2021/03/01 03:14:21;;;;;;;16.17;10.87;;;;;;;;;;5107560;28;20541;-59
2021/03/01 03:16:48;;;;;;;13.80;10.57;;;;;;;;;;5097774;28;20579;-60
2021/03/01 03:19:15;;;;;;;14.17;10.30;;;;;;;;;;5095448;28;20175;-59
2021/03/01 03:21:41;;;;;;;15.10;10.93;;;;;;;;;;5074766;28;20176;-60
2021/03/01 03:24:07;;;;;;;14.33;10.57;;;;;;;;;;5078004;28;20240;-59
2021/03/01 03:26:34;;;;;;;16.67;11.50;;;;;;;;;;5077763;28;20180;-60
2021/03/01 03:29:00;;;;;;;15.57;11.57;;;;;;;;;;5100056;28;20182;-59
2021/03/01 03:31:26;;;;;;;16.00;12.20;;;;;;;;;;5100039;28;20176;-60
2021/03/01 03:33:52;;;;;;;13.07;10.10;;;;;;;;;;5105678;28;20774;-59
2021/03/01 03:36:22;;;;;;;14.70;11.07;;;;;;;;;;5096833;28;20206;-59
2021/03/01 03:38:51;;;;;;;15.23;11.17;;;;;;;;;;5099622;28;20250;-59
2021/03/01 03:41:18;;;;;;;14.50;11.67;;;;;;;;;;5095648;28;20641;-60
2021/03/01 03:43:44;;;;;;;11.93;9.73;;;;;;;;;;5092250;28;20255;-59
2021/03/01 03:46:11;;;;;;;13.70;11.27;;;;;;;;;;5100829;28;21008;-59
2021/03/01 03:48:38;;;;;;;16.10;10.83;;;;;;;;;;5108620;28;20183;-59
2021/03/01 03:51:05;;;;;;;16.10;11.60;;;;;;;;;;5077291;28;20607;-59
2021/03/01 03:53:40;;;;;;;14.53;11.37;;;;;;;;;;5106475;28;20203;-59
2021/03/01 03:56:07;;;;;;;15.03;10.00;;;;;;;;;;5104074;28;20155;-60
2021/03/01 03:58:35;;;;;;;14.37;10.73;;;;;;;;;;5078104;28;20208;-59
2021/03/01 04:01:02;;;;;;;12.90;10.33;;;;;;;;;;5080068;28;20192;-61
2021/03/01 04:03:29;;;;;;;14.93;11.30;;;;;;;;;;5083974;28;20534;-59
2021/03/01 04:05:56;;;;;;;14.23;11.10;;;;;;;;;;5094078;28;20645;-59
2021/03/01 04:08:23;;;;;;;14.00;11.57;;;;;;;;;;5100314;28;20617;-60
2021/03/01 04:10:52;;;;;;;13.43;10.53;;;;;;;;;;5098321;28;20234;-59
2021/03/01 04:13:18;;;;;;;14.80;11.13;;;;;;;;;;5095208;28;20788;-60
2021/03/01 04:15:48;;;;;;;14.53;10.87;;;;;;;;;;5100320;28;20595;-59
2021/03/01 04:18:16;;;;;;;13.57;10.10;;;;;;;;;;5079543;28;20183;-60
2021/03/01 04:20:42;;;;;;;13.50;10.57;;;;;;;;;;5100538;28;20633;-60
2021/03/01 04:23:09;;;;;;;14.83;10.50;;;;;;;;;;5097984;28;20180;-59
2021/03/01 04:25:35;;;;;;;14.43;10.10;;;;;;;;;;5100094;28;20202;-60
2021/03/01 04:28:02;;;;;;;14.27;10.30;;;;;;;;;;5088616;28;20180;-59
2021/03/01 04:30:29;;;;;;;16.17;11.80;;;;;;;;;;5093549;28;20178;-59
2021/03/01 04:32:55;;;;;;;13.20;10.10;;;;;;;;;;5102409;28;20180;-60
2021/03/01 04:35:22;;;;;;;13.10;10.07;;;;;;;;;;5084476;28;20176;-61
2021/03/01 04:37:48;;;;;;;14.30;10.17;;;;;;;;;;5097649;28;20178;-60
2021/03/01 04:40:15;;;;;;;12.73;10.27;;;;;;;;;;5080516;28;20634;-60
2021/03/01 04:42:42;;;;;;;13.63;9.97;;;;;;;;;;5097764;28;20234;-60
2021/03/01 04:45:09;;;;;;;12.97;9.73;;;;;;;;;;5082198;28;20243;-61
2021/03/01 04:47:35;;;;;;;14.83;10.87;;;;;;;;;;5100355;28;20179;-59
2021/03/01 04:50:01;;;;;;;15.10;10.53;;;;;;;;;;5107888;28;20187;-60
2021/03/01 04:52:28;;;;;;;18.23;11.30;;;;;;;;;;5082881;28;20314;-59
2021/03/01 04:54:55;;;;;;;14.17;10.43;;;;;;;;;;5098649;28;20199;-59
2021/03/01 04:57:21;;;;;;;14.47;10.07;;;;;;;;;;5074059;28;20187;-60
2021/03/01 04:59:48;;;;;;;12.00;9.87;;;;;;;;;;5091016;28;20176;-61
2021/03/01 05:02:15;;;;;;;12.90;9.57;;;;;;;;;;5079996;28;20180;-60
2021/03/01 05:04:41;;;;;;;14.73;10.60;;;;;;;;;;5097011;28;20267;-60
2021/03/01 05:07:08;;;;;;;14.80;10.33;;;;;;;;;;5077062;28;20227;-60
2021/03/01 05:09:35;;;;;;;14.60;10.77;;;;;;;;;;5098709;28;20202;-62
2021/03/01 05:12:02;;;;;;;14.87;10.10;;;;;;;;;;5103901;28;20176;-59
2021/03/01 05:14:28;;;;;;;13.40;10.30;;;;;;;;;;5082855;28;20211;-59
2021/03/01 05:16:54;;;;;;;15.03;10.37;;;;;;;;;;5098462;28;20210;-59
2021/03/01 05:19:20;;;;;;;13.87;9.93;;;;;;;;;;5097303;28;20324;-59
2021/03/01 05:21:46;;;;;;;13.43;10.63;;;;;;;;;;5097689;28;20262;-62
2021/03/01 05:24:12;;;;;;;14.97;10.87;;;;;;;;;;5091608;28;20290;-59
2021/03/01 05:26:38;;;;;;;12.63;9.77;;;;;;;;;;5101879;28;20179;-59
2021/03/01 05:29:04;;;;;;;13.93;10.57;;;;;;;;;;5098103;28;20180;-59
2021/03/01 05:31:31;;;;;;;14.43;10.77;;;;;;;;;;5080915;28;20184;-59
2021/03/01 05:33:57;;;;;;;14.43;10.73;;;;;;;;;;5100436;28;20290;-59
2021/03/01 05:36:23;;;;;;;13.13;10.17;;;;;;;;;;5092794;28;20171;-59
2021/03/01 05:38:49;;;;;;;14.73;10.67;;;;;;;;;;5081433;28;20204;-59
2021/03/01 05:41:18;;;;;;;13.70;10.47;;;;;;;;;;5100365;28;20532;-60
2021/03/01 05:43:46;;;;;;;12.60;10.33;;;;;;;;;;5095657;28;20187;-59
2021/03/01 05:46:12;;;;;;;15.43;10.50;;;;;;;;;;5098737;28;20581;-60
2021/03/01 05:48:40;;;;;;;14.30;10.57;;;;;;;;;;5099198;28;20179;-59
2021/03/01 05:51:06;;;;;;;13.43;10.50;;;;;;;;;;5099739;28;20187;-59
2021/03/01 05:53:33;;;;;;;16.13;10.47;;;;;;;;;;5096937;28;20211;-59
2021/03/01 05:56:00;;;;;;;12.60;10.20;;;;;;;;;;5098426;28;20541;-60
2021/03/01 05:58:27;;;;;;;15.77;11.70;;;;;;;;;;5095451;28;20244;-59
2021/03/01 06:00:54;;;;;;;13.23;10.83;;;;;;;;;;5082353;28;20179;-60
2021/03/01 06:03:20;;;;;;;14.93;10.83;;;;;;;;;;5097206;28;20194;-60
2021/03/01 06:05:46;;;;;;;15.37;10.73;;;;;;;;;;5094368;28;20263;-61
2021/03/01 06:08:12;;;;;;;14.27;10.67;;;;;;;;;;5097150;28;20525;-59
2021/03/01 06:10:38;;;;;;;15.87;11.80;;;;;;;;;;5095184;28;21383;-60
2021/03/01 06:13:04;;;;;;;15.53;11.37;;;;;;;;;;5066098;28;20935;-60
2021/03/01 06:15:31;;;;;;;14.17;10.43;;;;;;;;;;5093138;28;20308;-60
2021/03/01 06:18:07;;;;;;;15.27;11.00;;;;;;;;;;5098125;28;20171;-60
2021/03/01 06:20:34;;;;;;;15.13;11.80;;;;;;;;;;5096121;28;20285;-60
2021/03/01 06:23:00;;;;;;;15.67;11.37;;;;;;;;;;5091249;28;20568;-61
2021/03/01 06:25:26;;;;;;;14.83;10.40;;;;;;;;;;5102974;28;20194;-60
2021/03/01 06:27:54;;;;;;;14.97;11.07;;;;;;;;;;5097814;28;20180;-59
2021/03/01 06:30:21;;;;;;;16.10;12.17;;;;;;;;;;5080235;28;20195;-61
2021/03/01 06:33:05;;;;;;;15.70;11.27;;;;;;;;;;5096909;28;20179;-61
2021/03/01 06:35:33;;;;;;;15.73;10.43;;;;;;;;;;5079015;28;20176;-60
2021/03/01 06:38:17;;;;;;;17.23;11.47;;;;;;;;;;5096259;28;20207;-61
2021/03/01 06:40:43;;;;;;;14.90;11.23;;;;;;;;;;5101955;28;20163;-60
2021/03/01 06:43:10;;;;;;;16.43;11.73;;;;;;;;;;5099541;28;20580;-60
2021/03/01 06:45:36;;;;;;;16.27;13.18;;;;;;;;;;5077493;28;20401;-60
2021/03/01 06:48:03;;;;;;;15.50;12.03;;;;;;;;;;5101371;28;20172;-60
2021/03/01 06:50:31;;;;;;;14.73;10.90;;;;;;;;;;5078665;28;20191;-61
2021/03/01 06:53:01;;;;;;;15.27;10.97;;;;;;;;;;5097938;28;20523;-60
2021/03/01 06:55:28;;;;;;;16.07;10.93;;;;;;;;;;5073076;28;20191;-60
2021/03/01 06:57:54;;;;;;;14.43;10.57;;;;;;;;;;5102206;28;20183;-60
2021/03/01 07:00:24;;;;;;;13.97;10.93;;;;;;;;;;5080141;28;20535;-60
2021/03/01 07:02:51;;;;;;;15.63;10.30;;;;;;;;;;5096842;28;20191;-60
2021/03/01 07:05:17;;;;;;;14.37;10.83;;;;;;;;;;5097321;28;20195;-60
2021/03/01 07:07:43;;;;;;;16.10;11.03;;;;;;;;;;5071779;28;20250;-60
2021/03/01 07:10:10;;;;;;;14.27;10.33;;;;;;;;;;5098197;28;20175;-60
2021/03/01 07:12:46;;;;;;;14.20;10.80;;;;;;;;;;5078550;28;20289;-59
2021/03/01 07:15:12;;;;;;;12.80;9.97;;;;;;;;;;5096963;28;20226;-60
2021/03/01 07:17:39;;;;;;;16.43;11.43;;;;;;;;;;5094619;28;20175;-58
2021/03/01 07:20:09;;;;;;;14.60;10.57;;;;;;;;;;5101952;28;20175;-58
2021/03/01 07:22:39;;;;;;;16.23;10.80;;;;;;;;;;5094359;28;20186;-58
2021/03/01 07:25:06;;;;;;;18.70;12.07;;;;;;;;;;5098894;28;20176;-58
2021/03/01 07:27:37;;;;;;;13.97;10.20;;;;;;;;;;5101063;28;20202;-58
2021/03/01 07:30:03;;;;;;;15.27;10.20;;;;;;;;;;5100790;28;20175;-58
2021/03/01 07:32:29;;;;;;;15.27;10.97;;;;;;;;;;5104147;28;20233;-58
2021/03/01 07:34:56;;;;;;;18.63;10.57;;;;;;;;;;5078840;28;20199;-58
2021/03/01 07:37:22;;;;;;;14.63;10.27;;;;;;;;;;5076257;28;20176;-58
2021/03/01 07:39:48;;;;;;;15.73;10.43;;;;;;;;;;5085224;28;20175;-58
2021/03/01 07:42:15;;;;;;;14.57;10.97;;;;;;;;;;5102707;28;20570;-58
2021/03/01 07:44:45;;;;;;;14.33;10.33;;;;;;;;;;5088701;28;20191;-60
2021/03/01 07:47:11;;;;;;;16.00;10.40;;;;;;;;;;5106862;28;20183;-59
2021/03/01 07:49:37;;;;;;;12.97;9.67;;;;;;;;;;5099867;28;20568;-58
2021/03/01 07:52:03;;;;;;;13.30;9.90;;;;;;;;;;5095810;28;20332;-58
2021/03/01 07:54:55;;;;;;;15.17;10.53;;;;;;;;;;5099158;28;20212;-58
2021/03/01 07:57:22;;;;;;;13.80;9.90;;;;;;;;;;5064202;28;20183;-59
2021/03/01 07:59:48;;;;;;;14.97;9.60;;;;;;;;;;5096216;28;20251;-58
2021/03/01 08:02:33;;;;;;;13.10;10.03;;;;;;;;;;5075576;28;20237;-58
2021/03/01 08:05:00;;;;;;;15.57;10.27;;;;;;;;;;5101307;28;20210;-59
2021/03/01 08:07:40;;;;;;;12.93;9.03;;;;;;;;;;5103121;28;20707;-59
2021/03/01 08:10:07;;;;;;;15.07;9.87;;;;;;;;;;5101094;28;20638;-60
2021/03/01 08:12:36;;;;;;;10.67;8.70;;;;;;;;;;5097770;28;20175;-59
2021/03/01 08:15:09;;;;;;;13.97;9.30;;;;;;;;;;5108058;28;20187;-58
2021/03/01 08:17:41;;;;;;;15.10;9.07;;;;;;;;;;5096850;28;20517;-58
2021/03/01 08:20:16;;;;;;;13.73;9.33;;;;;;;;;;5102444;28;20251;-58
2021/03/01 08:23:00;;;;;;;12.43;9.40;;;;;;;;;;5095339;28;20174;-58
2021/03/01 08:25:46;;;;;;;11.33;8.87;;;;;;;;;;5103060;28;20178;-59
2021/03/01 08:28:18;;;;;;;14.13;9.13;;;;;;;;;;5096268;28;20175;-58
2021/03/01 08:30:44;;;;;;;12.00;8.70;;;;;;;;;;5079472;28;20191;-58
2021/03/01 08:33:10;;;;;;;12.60;8.40;;;;;;;;;;5100866;28;20199;-58
2021/03/01 08:35:40;;;;;;;12.87;9.37;;;;;;;;;;5100289;28;20192;-59
2021/03/01 08:38:07;;;;;;;12.43;8.63;;;;;;;;;;5099166;28;20179;-58
2021/03/01 08:40:33;;;;;;;12.77;9.03;;;;;;;;;;5099862;28;20184;-58
2021/03/01 08:43:03;;;;;;;11.60;8.60;;;;;;;;;;5099569;28;20213;-58
2021/03/01 08:45:45;;;;;;;12.77;9.00;;;;;;;;;;5094455;28;20202;-58
2021/03/01 08:48:21;;;;;;;13.63;9.23;;;;;;;;;;5101225;28;20180;-59
2021/03/01 08:50:51;;;;;;;13.70;8.60;;;;;;;;;;5096400;28;20187;-59
2021/03/01 08:53:20;;;;;;;12.50;8.40;;;;;;;;;;5082484;28;20634;-59
2021/03/01 08:55:46;;;;;;;10.70;8.00;;;;;;;;;;5098599;28;20176;-58
2021/03/01 08:58:13;;;;;;;11.53;8.47;;;;;;;;;;5094079;28;20183;-59
2021/03/01 09:00:59;;;;;;;12.40;7.57;;;;;;;;;;5078649;28;20252;-58
2021/03/01 09:03:33;;;;;;;11.83;8.13;;;;;;;;;;5080967;28;20262;-59
2021/03/01 09:06:09;;;;;;;10.97;8.17;;;;;;;;;;5106342;28;20198;-59
2021/03/01 09:08:38;;;;;;;10.33;8.20;;;;;;;;;;5098864;28;20195;-58
2021/03/01 09:11:06;;;;;;;10.47;7.67;;;;;;;;;;5082563;28;20180;-59
2021/03/01 09:13:35;;;;;;;13.00;8.73;;;;;;;;;;5097618;28;20585;-59
2021/03/01 09:16:05;;;;;;;12.53;8.03;;;;;;;;;;5084655;28;20183;-60
2021/03/01 09:18:32;;;;;;;10.83;7.53;;;;;;;;;;5108235;28;20179;-59
2021/03/01 09:20:58;;;;;;;10.13;7.40;;;;;;;;;;5102373;28;20711;-59
2021/03/01 09:23:38;;;;;;;12.07;8.60;;;;;;;;;;5083079;28;20187;-59
2021/03/01 09:26:05;;;;;;;10.83;7.80;;;;;;;;;;5091569;28;20175;-59
2021/03/01 09:28:36;;;;;;;12.20;8.60;;;;;;;;;;5097500;28;20194;-59
2021/03/01 09:31:02;;;;;;;12.60;8.10;;;;;;;;;;5099840;28;20269;-59
2021/03/01 09:33:29;;;;;;;13.03;8.87;;;;;;;;;;5106481;28;20168;-58
2021/03/01 09:35:55;;;;;;;14.00;9.60;;;;;;;;;;5079693;28;20199;-58
2021/03/01 09:38:21;;;;;;;13.33;9.53;;;;;;;;;;5098602;28;20221;-58
2021/03/01 09:40:48;;;;;;;11.13;8.83;;;;;;;;;;5094375;28;20638;-59
2021/03/01 09:43:23;;;;;;;12.77;8.50;;;;;;;;;;5075334;28;20216;-58
2021/03/01 09:45:49;;;;;;;11.03;8.47;;;;;;;;;;5102062;28;20162;-59
2021/03/01 09:48:15;;;;;;;13.07;7.73;;;;;;;;;;5099623;28;20183;-58
2021/03/01 09:50:41;;;;;;;9.90;7.40;;;;;;;;;;5095376;28;20283;-59
2021/03/01 09:53:07;;;;;;;12.70;8.57;;;;;;;;;;5083476;28;20669;-60
2021/03/01 09:55:33;;;;;;;10.77;7.97;;;;;;;;;;5099135;28;20208;-59
2021/03/01 09:57:59;;;;;;;10.57;7.83;;;;;;;;;;5098892;28;20186;-59
2021/03/01 10:00:27;;;;;;;10.33;8.70;;;;;;;;;;5099984;28;20607;-58
2021/03/01 10:03:02;;;;;;;10.37;8.03;;;;;;;;;;5083064;28;20176;-59
2021/03/01 10:05:29;;;;;;;11.10;8.27;;;;;;;;;;5073685;28;20186;-59
2021/03/01 10:07:59;;;;;;;10.77;7.20;;;;;;;;;;5097119;28;20219;-58
2021/03/01 10:10:25;;;;;;;12.07;8.70;;;;;;;;;;5076751;28;20651;-59
2021/03/01 10:12:52;;;;;;;11.53;7.87;;;;;;;;;;5082422;28;20183;-60
2021/03/01 10:15:18;;;;;;;10.40;8.07;;;;;;;;;;5080537;28;20192;-59
2021/03/01 10:17:44;;;;;;;12.27;8.37;;;;;;;;;;5100020;28;20171;-59
2021/03/01 10:20:11;;;;;;;12.43;8.77;;;;;;;;;;5095590;28;20224;-59
2021/03/01 10:22:56;;;;;;;12.50;8.60;;;;;;;;;;5076860;28;20179;-60
2021/03/01 10:25:41;;;;;;;11.40;8.00;;;;;;;;;;5098977;28;20524;-62
2021/03/01 10:28:08;;;;;;;10.90;9.03;;;;;;;;;;5098724;28;21082;-61
2021/03/01 10:30:34;;;;;;;9.83;7.93;;;;;;;;;;5072433;28;20176;-59
2021/03/01 10:33:07;;;;;;;11.63;8.33;;;;;;;;;;5093558;28;20180;-59
2021/03/01 10:35:33;;;;;;;12.07;7.70;;;;;;;;;;5099101;28;20187;-59
2021/03/01 10:38:04;;;;;;;12.03;8.33;;;;;;;;;;5074557;28;20167;-59
2021/03/01 10:40:30;;;;;;;11.10;8.20;;;;;;;;;;5077106;28;20167;-59
2021/03/01 10:42:56;;;;;;;10.77;7.80;;;;;;;;;;5078040;28;20260;-59
2021/03/01 10:45:22;;;;;;;11.23;7.87;;;;;;;;;;5099843;28;20605;-59
2021/03/01 10:48:01;;;;;;;11.17;7.87;;;;;;;;;;5091056;28;20606;-61
2021/03/01 10:50:28;;;;;;;12.83;8.20;;;;;;;;;;5094933;28;20276;-59
2021/03/01 10:52:54;;;;;;;12.40;8.50;;;;;;;;;;5075571;28;20180;-58
2021/03/01 10:55:20;;;;;;;10.60;7.93;;;;;;;;;;5082773;28;20523;-59
2021/03/01 10:57:46;;;;;;;9.10;7.13;;;;;;;;;;5096571;28;20242;-59
2021/03/01 11:00:12;;;;;;;9.00;7.50;;;;;;;;;;5097772;28;20243;-59
2021/03/01 11:02:38;;;;;;;9.67;7.77;;;;;;;;;;5099132;28;20176;-59
2021/03/01 11:05:05;;;;;;;10.17;7.23;;;;;;;;;;5096121;28;20186;-59
2021/03/01 11:07:31;;;;;;;9.87;7.40;;;;;;;;;;5090372;28;20220;-59
2021/03/01 11:09:57;;;;;;;10.67;7.53;;;;;;;;;;5096380;28;20210;-59
2021/03/01 11:12:23;;;;;;;12.10;7.80;;;;;;;;;;5080352;28;20191;-60
2021/03/01 11:14:49;;;;;;;10.33;8.57;;;;;;;;;;5102192;28;20214;-60
2021/03/01 11:17:15;;;;;;;10.90;7.93;;;;;;;;;;5099202;28;20183;-59
2021/03/01 11:19:41;;;;;;;11.87;7.10;;;;;;;;;;5074577;28;20180;-59
2021/03/01 11:22:07;;;;;;;10.83;8.27;;;;;;;;;;5076082;28;20534;-58
2021/03/01 11:24:33;;;;;;;11.13;7.83;;;;;;;;;;5097922;28;20549;-59
2021/03/01 11:26:59;;;;;;;10.20;8.17;;;;;;;;;;5093120;28;20191;-59
2021/03/01 11:29:25;;;;;;;11.93;7.40;;;;;;;;;;5076697;28;20263;-59
2021/03/01 11:31:51;;;;;;;8.87;6.83;;;;;;;;;;5098648;28;20297;-59
2021/03/01 11:34:18;;;;;;;9.90;7.37;;;;;;;;;;5084181;28;20199;-59
2021/03/01 11:36:44;;;;;;;9.30;7.20;;;;;;;;;;5078916;28;20588;-59
2021/03/01 11:39:11;;;;;;;11.37;8.27;;;;;;;;;;5078838;28;20171;-58
2021/03/01 11:41:38;;;;;;;8.73;6.97;;;;;;;;;;5091510;28;20201;-59
2021/03/01 11:44:04;;;;;;;10.33;7.43;;;;;;;;;;5104433;28;20172;-59
2021/03/01 11:46:30;;;;;;;9.67;7.20;;;;;;;;;;5102789;28;20181;-59
2021/03/01 11:48:56;;;;;;;8.83;6.70;;;;;;;;;;5085635;28;20176;-59
2021/03/01 11:51:22;;;;;;;8.87;7.20;;;;;;;;;;5077483;28;20180;-59
2021/03/01 11:53:48;;;;;;;9.33;7.07;;;;;;;;;;5103096;28;20227;-60
2021/03/01 11:56:15;;;;;;;9.33;6.77;;;;;;;;;;5098904;28;20218;-59
2021/03/01 11:58:41;;;;;;;10.73;6.70;;;;;;;;;;5098047;28;20168;-59
2021/03/01 12:01:08;;;;;;;9.03;6.77;;;;;;;;;;5099398;28;20175;-59
2021/03/01 12:03:34;;;;;;;8.47;6.87;;;;;;;;;;5081750;28;20183;-59
2021/03/01 12:06:01;;;;;;;8.53;7.23;;;;;;;;;;5098889;28;20584;-59
2021/03/01 12:08:27;;;;;;;7.97;6.50;;;;;;;;;;5099947;28;20231;-59
2021/03/01 12:10:53;;;;;;;8.40;6.57;;;;;;;;;;5084482;28;20172;-59
2021/03/01 12:13:19;;;;;;;9.30;6.90;;;;;;;;;;5089588;28;20184;-59
2021/03/01 12:15:45;;;;;;;7.93;6.70;;;;;;;;;;5102696;28;20175;-59
2021/03/01 12:18:11;;;;;;;10.60;6.83;;;;;;;;;;5104344;28;20178;-59
2021/03/01 12:20:37;;;;;;;9.73;7.30;;;;;;;;;;5097658;28;20176;-59
2021/03/01 12:23:04;;;;;;;9.60;7.50;;;;;;;;;;5103594;28;20184;-62
2021/03/01 12:25:30;;;;;;;9.40;7.57;;;;;;;;;;5101971;28;20179;-59
2021/03/01 12:27:56;;;;;;;8.93;6.80;;;;;;;;;;5095779;28;20587;-59
2021/03/01 12:30:22;;;;;;;9.40;7.13;;;;;;;;;;5098243;28;20190;-62
2021/03/01 12:32:48;;;;;;;11.37;7.70;;;;;;;;;;5098428;28;20183;-59
2021/03/01 12:35:14;;;;;;;9.30;8.03;;;;;;;;;;5078993;28;20196;-59
2021/03/01 12:37:40;;;;;;;10.37;7.37;;;;;;;;;;5093365;28;20612;-59
2021/03/01 12:40:07;;;;;;;11.40;7.60;;;;;;;;;;5100451;28;20257;-59
2021/03/01 12:42:33;;;;;;;10.23;8.60;;;;;;;;;;5101705;28;20189;-60
2021/03/01 12:45:00;;;;;;;9.70;7.60;;;;;;;;;;5096060;28;20192;-59
2021/03/01 12:47:27;;;;;;;10.23;7.77;;;;;;;;;;5105341;28;20184;-59
2021/03/01 12:49:53;;;;;;;12.70;7.67;;;;;;;;;;5102845;28;20419;-59
2021/03/01 12:52:18;;;;;;;10.00;7.90;;;;;;;;;;5096897;28;20184;-59
2021/03/01 12:54:44;;;;;;;12.53;8.47;;;;;;;;;;5098901;28;20241;-60
2021/03/01 12:57:11;;;;;;;10.23;8.37;;;;;;;;;;5101891;28;20211;-60
2021/03/01 12:59:37;;;;;;;9.70;7.47;;;;;;;;;;5096203;28;20567;-60
2021/03/01 13:02:06;;;;;;;9.90;7.53;;;;;;;;;;5076839;28;20187;-59
2021/03/01 13:04:32;;;;;;;10.33;8.27;;;;;;;;;;5097655;28;20688;-60
2021/03/01 13:07:01;;;;;;;11.73;8.13;;;;;;;;;;5080324;28;20521;-59
2021/03/01 13:09:27;;;;;;;12.03;8.93;;;;;;;;;;5096867;28;20247;-60
2021/03/01 13:11:53;;;;;;;9.77;7.67;;;;;;;;;;5088293;28;20179;-60
2021/03/01 13:14:22;;;;;;;17.63;12.57;;;;;;;;;;5080857;28;20662;-61
2021/03/01 13:16:48;;;;;;;15.67;11.60;;;;;;;;;;5079600;28;20186;-60
2021/03/01 13:19:14;;;;;;;19.73;12.00;;;;;;;;;;5075426;28;20175;-61
2021/03/01 13:21:40;;;;;;;15.97;12.03;;;;;;;;;;5098153;28;20176;-61
2021/03/01 13:24:06;;;;;;;21.80;12.37;;;;;;;;;;5083897;28;20188;-61
2021/03/01 13:26:32;;;;;;;16.03;11.97;;;;;;;;;;5084457;28;20547;-63
2021/03/01 13:28:58;;;;;;;16.97;12.40;;;;;;;;;;5079759;28;20641;-61
2021/03/01 13:31:25;;;;;;;17.70;11.87;;;;;;;;;;5093596;28;20215;-61
2021/03/01 13:33:51;;;;;;;22.80;12.77;;;;;;;;;;5083542;28;20207;-60
2021/03/01 13:36:17;;;;;;;17.67;11.50;;;;;;;;;;5100223;28;20202;-61
2021/03/01 13:38:43;;;;;;;17.97;11.73;;;;;;;;;;5095157;28;20263;-61
2021/03/01 13:41:12;;;;;;;19.10;11.97;;;;;;;;;;5073916;28;20709;-61
2021/03/01 13:43:38;;;;;;;19.53;12.10;;;;;;;;;;5106887;28;20512;-60
2021/03/01 13:46:04;;;;;;;17.47;11.63;;;;;;;;;;5083264;28;20182;-62
2021/03/01 13:48:30;;;;;;;19.17;12.73;;;;;;;;;;5098058;28;20638;-61
2021/03/01 13:50:56;;;;;;;18.67;12.77;;;;;;;;;;5095946;28;20176;-61
2021/03/01 13:53:22;;;;;;;20.10;13.33;;;;;;;;;;5101913;28;20183;-62
2021/03/01 13:55:48;;;;;;;18.67;13.40;;;;;;;;;;5082846;28;20179;-61
2021/03/01 13:58:14;;;;;;;19.53;14.07;;;;;;;;;;5096553;28;20536;-61
2021/03/01 14:00:40;;;;;;;18.90;12.83;;;;;;;;;;5086644;28;20179;-61
2021/03/01 14:03:07;;;;;;;20.83;15.20;;;;;;;;;;5098157;28;20201;-61
2021/03/01 14:05:33;;;;;;;21.10;14.73;;;;;;;;;;5093213;28;20184;-62
2021/03/01 14:07:59;;;;;;;17.67;12.17;;;;;;;;;;5079067;28;20283;-61
2021/03/01 14:10:25;;;;;;;21.30;13.40;;;;;;;;;;5077047;28;20577;-64
2021/03/01 14:12:51;;;;;;;17.00;13.00;;;;;;;;;;5100192;28;20179;-61
2021/03/01 14:15:18;;;;;;;18.60;13.70;;;;;;;;;;5071004;28;20272;-61
2021/03/01 14:17:44;;;;;;;18.47;12.73;;;;;;;;;;5092255;28;20539;-62
2021/03/01 14:20:10;;;;;;;16.87;12.73;;;;;;;;;;5091928;28;20179;-61
2021/03/01 14:22:36;;;;;;;22.13;14.80;;;;;;;;;;5073366;28;20183;-61
2021/03/01 14:25:03;;;;;;;18.10;13.90;;;;;;;;;;5094333;28;20183;-62